Time;durP1;ratioP1;P1;durP2;ratioP2;P2;SDS_P1;SDS_P2;PMS_P1;PMS_P2;Temp;Humidity;BMP_temperature;BMP_pressure;BME280_temperature;BME280_humidity;BME280_pressure;Samples;Min_cycle;Max_cycle;Signal;HPM_P1;HPM_P2
2022/04/02 00:01:14;;;;;;;6.00;4.10;;;;;;;6.99;43.61;98357.91;5109191;28;20050;-66
2022/04/02 00:03:40;;;;;;;10.47;4.23;;;;;;;7.12;44.03;98381.97;5075229;28;20054;-66
2022/04/02 00:06:06;;;;;;;10.77;4.13;;;;;;;6.95;44.22;98379.53;5109306;28;20043;-66
2022/04/02 00:08:32;;;;;;;6.67;4.37;;;;;;;6.90;44.80;98369.47;5090852;28;20035;-67
2022/04/02 00:10:58;;;;;;;7.77;4.50;;;;;;;6.88;44.60;98361.72;5109819;28;20048;-66
2022/04/02 00:13:24;;;;;;;5.73;4.03;;;;;;;6.83;44.52;98371.94;5077569;28;20044;-66
2022/04/02 00:15:50;;;;;;;6.27;4.17;;;;;;;6.85;44.75;98375.25;5060490;28;20412;-66
2022/04/02 00:18:15;;;;;;;5.63;4.20;;;;;;;6.73;44.54;98365.19;5077517;28;20097;-66
2022/04/02 00:20:41;;;;;;;5.90;4.03;;;;;;;6.74;44.90;98372.09;5094061;28;20045;-66
2022/04/02 00:25:51;;;;;;;7.23;4.50;;;;;;;6.67;45.32;98357.94;5110690;28;20825;-66
2022/04/02 00:28:17;;;;;;;5.70;3.80;;;;;;;6.61;45.45;98355.97;5060462;28;20040;-66
2022/04/02 00:30:43;;;;;;;6.63;4.10;;;;;;;6.49;45.78;98351.97;5076919;28;20104;-66
2022/04/02 00:33:10;;;;;;;8.73;4.30;;;;;;;6.48;46.23;98337.97;5077429;28;20036;-66
2022/04/02 00:35:37;;;;;;;7.20;4.63;;;;;;;6.47;46.33;98338.94;5060989;28;20179;-66
2022/04/02 00:38:02;;;;;;;7.27;4.63;;;;;;;6.39;46.72;98335.50;5060759;28;20039;-66
2022/04/02 00:40:29;;;;;;;7.57;4.73;;;;;;;6.35;46.84;98329.72;5077096;28;20134;-66
2022/04/02 00:42:55;;;;;;;8.47;4.70;;;;;;;6.27;47.35;98326.25;5093676;28;20055;-66
2022/04/02 00:45:20;;;;;;;8.07;4.57;;;;;;;6.27;47.50;98326.25;5092836;28;20564;-66
2022/04/02 00:47:46;;;;;;;7.13;4.90;;;;;;;6.20;47.70;98320.81;5075694;28;20035;-66
2022/04/02 00:50:12;;;;;;;8.27;4.40;;;;;;;6.15;47.49;98322.28;5075357;28;20047;-66
2022/04/02 00:52:38;;;;;;;7.67;4.70;;;;;;;6.23;47.60;98303.81;5075225;28;20035;-66
2022/04/02 00:55:05;;;;;;;6.40;4.60;;;;;;;6.22;47.57;98316.19;5058494;28;20042;-66
2022/04/02 00:57:32;;;;;;;8.20;4.83;;;;;;;6.10;47.46;98309.59;5092812;28;20638;-67
2022/04/02 00:59:58;;;;;;;11.90;5.23;;;;;;;6.09;47.31;98305.28;5093605;28;20036;-66
2022/04/02 01:02:24;;;;;;;11.70;5.20;;;;;;;6.13;47.24;98309.28;5110896;28;20154;-66
2022/04/02 01:04:54;;;;;;;9.97;4.93;;;;;;;6.17;47.16;98293.94;5077815;28;20055;-66
2022/04/02 01:07:21;;;;;;;7.23;4.67;;;;;;;6.11;47.01;98282.25;5093738;28;20085;-66
2022/04/02 01:09:47;;;;;;;6.33;5.13;;;;;;;6.02;47.10;98277.13;5076255;28;20063;-66
2022/04/02 01:12:12;;;;;;;11.77;4.80;;;;;;;5.98;46.86;98289.78;5076601;28;20138;-66
2022/04/02 01:14:41;;;;;;;6.40;4.70;;;;;;;5.95;46.95;98286.66;5077159;28;20043;-66
2022/04/02 01:17:20;;;;;;;7.40;5.10;;;;;;;5.89;47.05;98274.16;5080501;28;20039;-67
2022/04/02 01:19:47;;;;;;;9.40;5.10;;;;;;;5.90;46.75;98273.16;5093168;28;20074;-66
2022/04/02 01:22:22;;;;;;;7.60;5.23;;;;;;;5.90;46.69;98273.97;5046755;28;20153;-66
2022/04/02 01:24:51;;;;;;;7.07;5.17;;;;;;;6.01;46.82;98278.13;5093833;28;20126;-66
2022/04/02 01:27:18;;;;;;;7.47;5.17;;;;;;;5.97;46.37;98274.97;5109837;28;20130;-66
2022/04/02 01:29:50;;;;;;;6.87;4.77;;;;;;;6.08;46.28;98264.13;5093877;28;20080;-66
2022/04/02 01:32:16;;;;;;;8.83;5.77;;;;;;;5.97;46.05;98251.25;5059199;28;20485;-66
2022/04/02 01:34:50;;;;;;;7.33;4.90;;;;;;;6.28;45.65;98262.81;5093552;28;20092;-66
2022/04/02 01:37:18;;;;;;;;;;;;;;;6.44;45.09;98267.28;5077299;28;20040;-66
2022/04/02 01:39:55;;;;;;;6.03;4.63;;;;;;;6.11;45.58;98278.78;5094603;28;20006;-66
2022/04/02 01:42:25;;;;;;;9.53;5.43;;;;;;;6.10;45.65;98267.44;5077263;28;20563;-66
2022/04/02 01:45:05;;;;;;;8.15;5.18;;;;;;;5.90;45.37;98239.72;5094798;28;20126;-67
2022/04/02 01:47:53;;;;;;;7.03;5.30;;;;;;;6.03;45.12;98274.31;5096063;28;20146;-66
2022/04/02 01:50:25;;;;;;;8.57;4.85;;;;;;;6.19;45.10;98273.53;5094245;28;20046;-66
2022/04/02 01:52:53;;;;;;;9.40;5.70;;;;;;;6.12;45.12;98260.16;5044779;28;20071;-66
2022/04/02 01:55:20;;;;;;;7.97;4.67;;;;;;;6.18;44.76;98262.13;5093740;28;20058;-66
2022/04/02 01:57:52;;;;;;;7.63;5.10;;;;;;;6.11;44.76;98247.97;5077528;28;20135;-66
2022/04/02 02:00:27;;;;;;;6.53;5.00;;;;;;;6.16;44.50;98260.66;5093581;28;20051;-65
2022/04/02 02:02:53;;;;;;;6.80;5.00;;;;;;;6.16;44.81;98256.22;5059373;28;20043;-66
2022/04/02 02:05:19;;;;;;;7.77;4.97;;;;;;;6.07;44.43;98222.97;5093054;28;20380;-66
2022/04/02 02:07:50;;;;;;;7.50;4.40;;;;;;;6.34;44.13;98248.16;5093301;28;20403;-66
2022/04/02 02:10:23;;;;;;;8.40;4.33;;;;;;;6.19;44.29;98244.53;5109822;28;20561;-66
2022/04/02 02:13:14;;;;;;;5.50;4.40;;;;;;;6.33;44.21;98241.22;5086638;28;20055;-66
2022/04/02 02:15:45;;;;;;;6.38;4.07;;;;;;;6.14;44.12;98226.56;5094369;28;20044;-65
2022/04/02 02:18:11;;;;;;;5.83;4.37;;;;;;;6.07;44.35;98237.94;5076754;28;20054;-66
2022/04/02 02:20:36;;;;;;;6.73;4.40;;;;;;;6.21;44.18;98235.44;5059550;28;20043;-65
2022/04/02 02:23:02;;;;;;;7.57;4.10;;;;;;;6.09;44.27;98239.41;5075876;28;20482;-67
2022/04/02 02:25:28;;;;;;;5.53;4.30;;;;;;;6.26;44.24;98251.59;5076534;28;20035;-65
2022/04/02 02:27:54;;;;;;;5.43;4.20;;;;;;;6.28;44.09;98259.34;5059572;28;20048;-66
2022/04/02 02:30:23;;;;;;;5.27;4.00;;;;;;;6.18;44.19;98248.16;5092658;28;20439;-66
2022/04/02 02:32:50;;;;;;;6.50;4.10;;;;;;;5.78;43.90;98169.06;5092670;28;20039;-66
2022/04/02 02:38:11;;;;;;;5.60;3.90;;;;;;;6.54;43.93;98246.81;5078668;28;20097;-67
2022/04/02 02:40:50;;;;;;;7.33;3.80;;;;;;;6.38;44.21;98250.28;5078950;28;20135;-65
2022/04/02 02:43:22;;;;;;;5.40;3.67;;;;;;;6.09;43.93;98226.22;5109456;28;20046;-65
2022/04/02 02:45:48;;;;;;;5.13;3.73;;;;;;;6.30;43.96;98270.56;5092870;28;20035;-65
2022/04/02 02:48:15;;;;;;;6.20;4.23;;;;;;;6.33;44.41;98272.88;5092946;28;20043;-66
2022/04/02 02:50:47;;;;;;;4.80;3.70;;;;;;;6.24;44.10;98277.31;5093805;28;20152;-65
2022/04/02 02:53:14;;;;;;;5.63;4.13;;;;;;;6.30;44.10;98276.66;5093070;28;20052;-66
2022/04/02 02:55:41;;;;;;;5.40;3.57;;;;;;;6.27;44.49;98276.97;5076095;28;20039;-65
2022/04/02 02:58:10;;;;;;;5.17;3.80;;;;;;;6.07;44.41;98240.56;5109214;28;20395;-65
2022/04/02 03:00:38;;;;;;;8.15;4.05;;;;;;;6.22;44.58;98276.66;5109468;28;20592;-66
2022/04/02 03:03:07;;;;;;;5.30;3.83;;;;;;;6.16;44.98;98279.94;5076225;28;20043;-67
2022/04/02 03:05:34;;;;;;;6.23;4.10;;;;;;;6.09;45.51;98270.22;5093129;28;20047;-68
2022/04/02 03:08:06;;;;;;;6.77;4.53;;;;;;;6.12;45.95;98262.00;5060958;28;20039;-66
2022/04/02 03:10:42;;;;;;;5.57;4.00;;;;;;;6.19;45.87;98263.81;5078742;28;20043;-66
2022/04/02 03:13:08;;;;;;;5.93;4.40;;;;;;;6.05;46.20;98256.53;5059130;28;20058;-66
2022/04/02 03:15:34;;;;;;;5.80;4.60;;;;;;;6.04;46.50;98254.88;5109794;28;20055;-66
2022/04/02 03:18:06;;;;;;;6.80;4.30;;;;;;;6.16;46.35;98244.84;5060507;28;20058;-66
2022/04/02 03:20:33;;;;;;;9.53;4.73;;;;;;;6.13;46.71;98247.81;5092783;28;20044;-65
2022/04/02 03:23:01;;;;;;;6.23;4.77;;;;;;;5.84;46.98;98208.78;5092266;28;20060;-66
2022/04/02 03:25:27;;;;;;;6.47;4.70;;;;;;;5.96;47.39;98233.81;5110650;28;20037;-65
2022/04/02 03:27:53;;;;;;;9.00;5.47;;;;;;;5.81;47.45;98202.97;5093185;28;20047;-66
2022/04/02 03:30:23;;;;;;;8.17;5.17;;;;;;;6.09;47.54;98226.22;5092960;28;20077;-65
2022/04/02 03:32:51;;;;;;;8.63;4.53;;;;;;;5.92;47.60;98227.19;5075655;28;20044;-65
2022/04/02 03:35:18;;;;;;;7.07;4.97;;;;;;;6.00;47.90;98243.03;5092476;28;20529;-65
2022/04/02 03:37:49;;;;;;;7.07;4.60;;;;;;;6.03;47.85;98236.59;5108432;28;20067;-65
2022/04/02 03:40:17;;;;;;;6.97;4.50;;;;;;;5.90;47.61;98216.03;5058809;28;20126;-65
2022/04/02 03:42:44;;;;;;;6.20;4.43;;;;;;;5.98;47.89;98231.00;5093808;28;20065;-65
2022/04/02 03:45:15;;;;;;;8.97;4.53;;;;;;;6.03;48.01;98231.31;5113328;28;20047;-68
2022/04/02 03:47:46;;;;;;;6.43;4.47;;;;;;;5.88;48.38;98227.69;5096761;28;20042;-69
2022/04/02 03:50:13;;;;;;;7.13;4.53;;;;;;;5.86;48.42;98232.31;5079342;28;20040;-67
2022/04/02 03:52:46;;;;;;;6.50;4.63;;;;;;;5.79;48.44;98237.38;5113179;28;20040;-68
2022/04/02 03:55:16;;;;;;;5.70;4.25;;;;;;;5.76;48.58;98245.59;5080261;28;20088;-66
2022/04/02 03:57:47;;;;;;;7.40;4.83;;;;;;;5.79;48.87;98244.44;5096817;28;20055;-66
2022/04/02 04:00:15;;;;;;;;;;;;;;;6.02;48.73;98246.34;5079739;28;20039;-66
2022/04/02 04:02:48;;;;;;;10.17;4.90;;;;;;;5.63;48.96;98247.06;5113159;28;19937;-65
2022/04/02 04:05:20;;;;;;;12.83;5.37;;;;;;;5.64;49.12;98261.88;5079845;28;20055;-67
2022/04/02 04:07:46;;;;;;;8.50;5.20;;;;;;;5.57;49.00;98258.19;5095647;28;20043;-65
2022/04/02 04:10:12;;;;;;;9.33;5.63;;;;;;;5.58;48.95;98259.88;5095619;28;20048;-66
2022/04/02 04:12:38;;;;;;;7.60;5.30;;;;;;;5.56;49.23;98261.84;5095376;28;20098;-67
2022/04/02 04:15:06;;;;;;;8.37;4.87;;;;;;;5.58;49.14;98246.72;5079030;28;20098;-65
2022/04/02 04:17:35;;;;;;;7.93;5.50;;;;;;;5.50;49.30;98244.03;5112721;27;20104;-65
2022/04/02 04:20:01;;;;;;;10.07;6.80;;;;;;;5.47;49.24;98241.72;5111948;28;20075;-66
2022/04/02 04:22:29;;;;;;;11.40;6.13;;;;;;;5.43;49.37;98249.13;5094974;28;20216;-65
2022/04/02 04:24:55;;;;;;;9.53;5.77;;;;;;;5.46;48.90;98229.56;5095300;28;20579;-65
2022/04/02 04:27:22;;;;;;;7.70;5.57;;;;;;;5.60;49.00;98235.00;5095266;28;20047;-66
2022/04/02 04:29:48;;;;;;;9.67;5.67;;;;;;;5.63;48.59;98237.31;5112210;28;20050;-65
2022/04/02 04:32:14;;;;;;;6.57;5.00;;;;;;;5.56;48.67;98220.53;5111855;28;20546;-66
2022/04/02 04:34:40;;;;;;;7.83;5.00;;;;;;;5.50;48.58;98194.84;5078016;28;20067;-66
2022/04/02 04:37:06;;;;;;;6.07;4.80;;;;;;;5.66;48.10;98218.56;5078382;28;20044;-66
2022/04/02 04:39:34;;;;;;;8.60;5.10;;;;;;;5.60;48.47;98215.75;5111637;28;20047;-65
2022/04/02 04:42:01;;;;;;;7.20;4.93;;;;;;;5.62;48.14;98209.34;5078273;28;20517;-65
2022/04/02 04:44:31;;;;;;;8.05;5.22;;;;;;;5.69;48.31;98218.25;5095252;28;20412;-66
2022/04/02 04:46:59;;;;;;;8.77;5.03;;;;;;;5.69;48.62;98220.06;5094470;28;20043;-65
2022/04/02 04:49:26;;;;;;;8.00;4.97;;;;;;;5.73;48.48;98216.13;5077778;28;20075;-65
2022/04/02 04:51:58;;;;;;;14.03;6.30;;;;;;;5.74;48.51;98217.75;5111853;28;20040;-65
2022/04/02 04:54:24;;;;;;;7.77;4.90;;;;;;;5.45;48.87;98185.78;5111033;28;20051;-66
2022/04/02 04:56:51;;;;;;;7.70;4.70;;;;;;;5.63;48.58;98210.19;5077760;28;20044;-66
2022/04/02 04:59:21;;;;;;;7.87;4.93;;;;;;;5.72;48.56;98222.38;5077746;28;20138;-65
2022/04/02 05:01:47;;;;;;;8.03;5.30;;;;;;;5.74;48.71;98210.69;5093519;28;20046;-66
2022/04/02 05:04:14;;;;;;;8.87;5.00;;;;;;;5.74;48.24;98204.59;5060385;28;20543;-66
2022/04/02 05:06:44;;;;;;;6.07;4.60;;;;;;;5.85;48.43;98213.03;5078538;28;20540;-67
2022/04/02 05:09:13;;;;;;;5.83;4.67;;;;;;;5.77;48.03;98201.63;5094683;28;20048;-68
2022/04/02 05:11:43;;;;;;;7.47;5.03;;;;;;;5.82;47.90;98216.00;5078238;28;20048;-68
2022/04/02 05:14:13;;;;;;;9.07;5.60;;;;;;;5.86;48.05;98205.97;5078151;28;20039;-68
2022/04/02 05:16:41;;;;;;;8.47;5.83;;;;;;;5.92;48.03;98211.41;5094823;28;20044;-68
2022/04/02 05:19:09;;;;;;;6.97;4.70;;;;;;;5.91;48.27;98201.84;5094736;28;20043;-67
2022/04/02 05:21:37;;;;;;;9.10;4.70;;;;;;;5.99;47.70;98211.56;5094488;28;20063;-68
2022/04/02 05:24:05;;;;;;;7.47;5.33;;;;;;;5.97;47.88;98208.25;5076815;28;20051;-68
2022/04/02 05:26:31;;;;;;;7.67;4.63;;;;;;;5.98;47.79;98210.72;5060179;28;20485;-67
2022/04/02 05:29:06;;;;;;;8.23;5.03;;;;;;;6.00;48.30;98203.50;5062395;28;20425;-67
2022/04/02 05:31:32;;;;;;;8.07;5.20;;;;;;;6.02;47.92;98209.44;5076917;28;20135;-68
2022/04/02 05:34:01;;;;;;;7.10;4.97;;;;;;;5.97;48.04;98200.38;5060211;28;20715;-69
2022/04/02 05:36:29;;;;;;;6.67;4.50;;;;;;;6.06;47.88;98199.38;5060628;28;20469;-68
2022/04/02 05:38:57;;;;;;;6.37;4.77;;;;;;;6.13;47.84;98198.56;5060499;28;20043;-68
2022/04/02 05:41:23;;;;;;;8.10;4.90;;;;;;;5.92;47.75;98168.44;5059856;28;20468;-71
2022/04/02 05:43:48;;;;;;;7.27;4.77;;;;;;;6.19;48.00;98187.38;5093210;28;20087;-69
2022/04/02 05:46:14;;;;;;;7.00;4.80;;;;;;;6.24;47.36;98192.94;5110339;27;20032;-74
2022/04/02 05:48:40;;;;;;;7.03;4.77;;;;;;;6.19;47.32;98192.63;5075273;28;20036;-72
2022/04/02 05:51:05;;;;;;;8.07;4.77;;;;;;;6.13;47.54;98164.31;5107113;28;20518;-70
2022/04/02 05:53:31;;;;;;;5.80;4.90;;;;;;;6.23;47.31;98185.19;5062761;28;20389;-70
2022/04/02 05:55:57;;;;;;;6.57;4.30;;;;;;;6.31;47.17;98190.47;5087664;28;20036;-70
2022/04/02 05:58:25;;;;;;;7.73;5.10;;;;;;;6.33;47.42;98176.16;5038097;28;20044;-70
2022/04/02 06:00:54;;;;;;;8.27;4.72;;;;;;;6.29;47.42;98180.09;5083963;28;20035;-68
2022/04/02 06:03:22;;;;;;;6.80;4.83;;;;;;;6.53;47.51;98173.97;5072001;28;20516;-70
2022/04/02 06:05:48;;;;;;;7.73;5.00;;;;;;;6.51;47.16;98158.31;5089362;28;20054;-70
2022/04/02 06:08:16;;;;;;;9.07;5.40;;;;;;;6.62;47.03;98165.88;5090120;28;20588;-71
2022/04/02 06:10:45;;;;;;;12.77;5.40;;;;;;;6.62;46.80;98165.88;5107945;28;20042;-70
2022/04/02 06:13:14;;;;;;;9.67;5.67;;;;;;;6.76;46.94;98153.78;5104620;28;20125;-70
2022/04/02 06:15:40;;;;;;;8.70;5.90;;;;;;;6.58;46.88;98154.00;5108865;28;20050;-69
2022/04/02 06:18:09;;;;;;;11.30;6.23;;;;;;;6.57;47.08;98148.91;5108093;28;20046;-71
2022/04/02 06:20:34;;;;;;;12.37;5.63;;;;;;;6.65;47.51;98149.72;5090491;28;20073;-71
2022/04/02 06:23:00;;;;;;;11.23;6.07;;;;;;;6.67;46.83;98150.34;5055471;28;20540;-70
2022/04/02 06:25:26;;;;;;;10.80;5.17;;;;;;;6.74;47.17;98146.06;5082033;28;20039;-72
2022/04/02 06:27:54;;;;;;;8.63;5.33;;;;;;;6.60;47.08;98154.66;5057627;28;20134;-72
2022/04/02 06:30:23;;;;;;;10.53;6.87;;;;;;;6.61;47.03;98156.28;5074205;28;20047;-71
2022/04/02 06:33:04;;;;;;;16.70;8.57;;;;;;;6.85;47.40;98153.59;5090812;28;20044;-73
2022/04/02 06:35:37;;;;;;;12.40;7.37;;;;;;;6.60;47.78;98149.38;5076267;28;20527;-70
2022/04/02 06:38:03;;;;;;;10.53;5.80;;;;;;;6.54;47.20;98142.16;5058398;28;20055;-67
2022/04/02 06:40:29;;;;;;;9.87;5.83;;;;;;;6.56;47.31;98132.28;5058052;28;20032;-67
2022/04/02 06:42:58;;;;;;;9.87;6.10;;;;;;;6.60;47.16;98132.72;5057968;28;20059;-68
2022/04/02 06:45:47;;;;;;;8.27;6.00;;;;;;;6.62;47.10;98120.19;5084275;28;20476;-66
2022/04/02 06:48:15;;;;;;;7.90;5.60;;;;;;;6.77;46.97;98115.84;5091589;28;20081;-68
2022/04/02 06:50:42;;;;;;;9.43;6.33;;;;;;;6.86;46.70;98097.19;5091842;28;20059;-69
2022/04/02 06:53:08;;;;;;;9.97;6.60;;;;;;;6.78;46.69;98073.47;5091378;28;20044;-70
2022/04/02 06:55:34;;;;;;;8.23;5.40;;;;;;;6.88;46.71;98095.22;5091009;28;20326;-70
2022/04/02 06:58:00;;;;;;;9.57;5.23;;;;;;;7.11;46.56;98092.59;5100595;28;20039;-69
2022/04/02 07:00:26;;;;;;;8.40;5.40;;;;;;;7.09;46.17;98080.59;5088880;28;20032;-69
2022/04/02 07:02:52;;;;;;;10.90;5.70;;;;;;;7.13;46.38;98080.06;5056399;28;20527;-70
2022/04/02 07:05:18;;;;;;;15.67;6.60;;;;;;;7.40;46.67;98070.78;5053402;28;20135;-68
2022/04/02 07:07:45;;;;;;;19.67;6.50;;;;;;;7.53;45.85;98053.38;5087510;28;20040;-70
2022/04/02 07:10:11;;;;;;;14.77;6.60;;;;;;;7.30;45.74;98054.38;5070149;28;20036;-68
2022/04/02 07:12:37;;;;;;;10.93;5.53;;;;;;;7.52;45.88;98056.19;5036473;28;20139;-68
2022/04/02 07:15:04;;;;;;;8.87;5.50;;;;;;;7.67;45.30;98062.34;5088879;28;20331;-69
2022/04/02 07:17:30;;;;;;;8.23;5.50;;;;;;;7.64;45.31;98060.06;5038600;28;20043;-67
2022/04/02 07:19:57;;;;;;;9.50;5.30;;;;;;;7.90;45.03;98065.78;5090914;28;20449;-67
2022/04/02 07:22:23;;;;;;;10.97;5.43;;;;;;;8.02;44.97;98061.69;5057965;28;20116;-67
2022/04/02 07:24:54;;;;;;;8.97;5.40;;;;;;;8.27;44.46;98063.13;5057388;28;20181;-69
2022/04/02 07:27:29;;;;;;;6.80;5.03;;;;;;;8.13;44.38;98043.53;5073433;28;20036;-67
2022/04/02 07:29:56;;;;;;;7.53;5.50;;;;;;;8.18;44.25;98050.97;5089399;28;20044;-70
2022/04/02 07:32:22;;;;;;;8.97;5.77;;;;;;;8.17;44.52;98065.16;5090308;28;20040;-66
2022/04/02 07:34:48;;;;;;;10.00;5.20;;;;;;;8.08;44.62;98053.84;5057750;28;20036;-68
2022/04/02 07:37:20;;;;;;;7.03;4.73;;;;;;;8.27;44.39;98053.34;5041026;28;20718;-67
2022/04/02 07:40:11;;;;;;;9.87;6.63;;;;;;;8.26;45.01;98056.16;5090009;28;20050;-69
2022/04/02 07:42:46;;;;;;;11.15;5.82;;;;;;;8.06;45.10;98057.66;5074302;28;20401;-68
2022/04/02 07:45:13;;;;;;;9.10;5.20;;;;;;;8.01;44.50;98046.84;5074755;28;20048;-67
2022/04/02 07:47:43;;;;;;;5.63;4.63;;;;;;;8.20;44.25;98044.47;5091228;28;20119;-70
2022/04/02 07:50:13;;;;;;;5.90;4.18;;;;;;;8.14;44.22;98039.09;5073765;28;20052;-67
2022/04/02 07:52:46;;;;;;;8.07;4.97;;;;;;;8.30;44.21;98031.81;5074381;28;20044;-67
2022/04/02 07:55:13;;;;;;;11.03;5.00;;;;;;;8.00;44.23;98011.63;5074716;28;20487;-67
2022/04/02 07:57:49;;;;;;;5.87;4.40;;;;;;;8.27;44.13;98029.53;5057588;28;20054;-67
2022/04/02 08:00:19;;;;;;;8.70;4.90;;;;;;;8.23;44.35;98035.38;5091240;28;20040;-70
2022/04/02 08:02:48;;;;;;;11.82;4.75;;;;;;;8.12;44.57;97999.59;5091789;28;20036;-71
2022/04/02 08:05:21;;;;;;;6.57;4.47;;;;;;;8.17;44.29;97988.47;5074688;28;20068;-66
2022/04/02 08:07:52;;;;;;;6.85;4.60;;;;;;;8.38;43.91;98012.38;5074034;28;20048;-68
2022/04/02 08:10:19;;;;;;;9.30;4.80;;;;;;;8.33;44.12;98009.50;5090191;28;20500;-70
2022/04/02 08:12:48;;;;;;;12.30;6.13;;;;;;;8.36;44.21;98011.78;5073401;28;20403;-67
2022/04/02 08:15:16;;;;;;;8.33;4.70;;;;;;;8.67;44.12;97999.16;5057421;28;20048;-66
2022/04/02 08:17:44;;;;;;;6.00;4.50;;;;;;;8.64;43.88;98001.34;5057681;28;20461;-68
2022/04/02 08:20:12;;;;;;;5.90;4.47;;;;;;;8.55;43.94;97984.72;5057848;28;20078;-66
2022/04/02 08:22:38;;;;;;;8.20;5.50;;;;;;;8.50;44.18;97982.63;5060638;28;20078;-66
2022/04/02 08:25:04;;;;;;;9.47;5.67;;;;;;;8.58;44.30;97979.06;5062999;28;20067;-66
2022/04/02 08:27:45;;;;;;;8.43;5.13;;;;;;;8.49;43.92;98001.34;5093794;28;20043;-66
2022/04/02 08:30:18;;;;;;;6.25;4.35;;;;;;;8.54;44.26;97991.03;5104050;28;20134;-66
2022/04/02 08:33:16;;;;;;;7.80;5.47;;;;;;;8.67;43.53;97972.69;5061844;28;20202;-66
2022/04/02 08:36:00;;;;;;;7.53;5.50;;;;;;;8.71;43.48;97991.63;5073160;28;20052;-66
2022/04/02 08:39:05;;;;;;;6.27;4.70;;;;;;;8.49;43.69;97959.00;5056646;28;20055;-66
2022/04/02 08:41:52;;;;;;;5.67;4.13;;;;;;;8.59;44.01;97975.44;5057257;28;20048;-66
2022/04/02 08:44:32;;;;;;;6.17;4.40;;;;;;;7.96;45.15;97969.88;5056078;28;20036;-67
2022/04/02 08:47:24;;;;;;;6.37;4.60;;;;;;;8.31;44.73;97955.94;5056702;28;20102;-66
2022/04/02 08:50:09;;;;;;;7.77;4.60;;;;;;;7.98;44.62;97915.03;5059735;28;20051;-65
2022/04/02 08:52:49;;;;;;;8.00;5.00;;;;;;;8.20;44.47;97951.09;5087722;28;20515;-65
2022/04/02 08:55:34;;;;;;;5.97;4.23;;;;;;;8.25;44.51;97951.41;5075639;28;20043;-66
2022/04/02 08:58:25;;;;;;;7.63;4.80;;;;;;;8.31;44.16;97954.13;5077709;28;20519;-66
2022/04/02 09:01:03;;;;;;;5.50;4.10;;;;;;;8.37;44.14;97932.25;5075933;28;20051;-66
2022/04/02 09:03:46;;;;;;;7.37;4.83;;;;;;;8.17;44.30;97930.31;5092115;28;20092;-66
2022/04/02 09:06:36;;;;;;;6.00;4.30;;;;;;;8.52;44.26;97930.38;5076234;28;20040;-66
2022/04/02 09:09:06;;;;;;;6.67;4.67;;;;;;;8.49;44.00;97929.91;5075561;28;20051;-67
2022/04/02 09:11:53;;;;;;;6.10;4.63;;;;;;;8.59;43.73;97936.53;5091952;28;20040;-67
2022/04/02 09:14:58;;;;;;;9.60;5.60;;;;;;;8.73;43.48;97929.59;5109828;28;20036;-65
2022/04/02 09:17:49;;;;;;;6.87;4.50;;;;;;;8.55;43.30;97894.78;5092696;28;20054;-64
2022/04/02 09:20:35;;;;;;;7.68;4.88;;;;;;;8.40;43.52;97921.28;5076730;28;20067;-66
2022/04/02 09:23:19;;;;;;;7.17;4.70;;;;;;;8.64;43.28;97911.38;5075777;28;20055;-66
2022/04/02 09:25:55;;;;;;;6.50;4.53;;;;;;;8.44;43.50;97882.06;5076058;28;20040;-66
2022/04/02 09:28:42;;;;;;;7.33;4.40;;;;;;;8.54;43.29;97882.56;5092680;28;20042;-65
2022/04/02 09:31:33;;;;;;;8.97;4.60;;;;;;;8.66;43.54;97899.56;5073712;28;20047;-68
2022/04/02 09:34:27;;;;;;;6.25;4.07;;;;;;;8.65;43.46;97881.25;5109449;28;20047;-67
2022/04/02 09:37:15;;;;;;;6.90;4.47;;;;;;;8.92;42.83;97877.84;5074052;28;20035;-66
2022/04/02 09:39:53;;;;;;;7.67;4.53;;;;;;;9.09;42.47;97895.91;5068681;28;20433;-66
2022/04/02 09:42:38;;;;;;;6.73;3.80;;;;;;;9.09;42.34;97865.97;5074798;28;20108;-67
2022/04/02 09:45:06;;;;;;;5.07;4.07;;;;;;;9.00;42.37;97853.88;5096763;28;20089;-67
2022/04/02 09:47:47;;;;;;;5.30;4.20;;;;;;;9.00;42.45;97859.16;5091610;28;20062;-66
2022/04/02 09:50:15;;;;;;;6.40;4.50;;;;;;;9.00;42.85;97856.53;5108126;28;20108;-68
2022/04/02 09:52:46;;;;;;;6.27;4.53;;;;;;;8.96;42.82;97865.88;5091348;28;20100;-67
2022/04/02 09:55:13;;;;;;;5.82;4.40;;;;;;;8.68;43.43;97830.59;5090815;28;20043;-67
2022/04/02 09:58:08;;;;;;;4.80;4.23;;;;;;;8.73;43.14;97844.06;5091675;28;20492;-67
2022/04/02 10:00:42;;;;;;;6.03;4.70;;;;;;;8.90;43.28;97856.03;5085834;28;20036;-68
2022/04/02 10:03:13;;;;;;;7.43;4.80;;;;;;;8.71;42.94;97846.91;5091613;28;20177;-68
2022/04/02 10:06:00;;;;;;;4.70;3.95;;;;;;;8.67;43.71;97855.41;5108950;28;20038;-68
2022/04/02 10:08:41;;;;;;;6.60;4.53;;;;;;;8.67;43.13;97843.03;5091259;28;20047;-69
2022/04/02 10:11:08;;;;;;;7.63;4.55;;;;;;;8.48;43.61;97841.81;5091049;28;20035;-68
2022/04/02 10:13:35;;;;;;;5.97;4.07;;;;;;;8.47;43.34;97856.03;5074006;28;20058;-66
2022/04/02 10:16:03;;;;;;;6.87;4.80;;;;;;;8.41;43.69;97838.28;5091386;28;20419;-67
2022/04/02 10:18:34;;;;;;;7.20;4.40;;;;;;;8.38;43.69;97832.53;5108944;28;20545;-67
2022/04/02 10:21:01;;;;;;;;;;;;;;;8.54;43.64;97816.44;5074783;28;20525;-67
2022/04/02 10:23:30;;;;;;;7.00;4.60;;;;;;;8.35;43.61;97790.59;5074647;28;19923;-65
2022/04/02 10:26:07;;;;;;;7.40;4.63;;;;;;;8.29;44.04;97807.22;5091191;28;20051;-67
2022/04/02 10:28:47;;;;;;;7.13;5.20;;;;;;;8.21;44.27;97810.78;5108808;28;20048;-67
2022/04/02 10:31:27;;;;;;;5.10;4.50;;;;;;;8.19;44.02;97807.50;5107703;28;20061;-68
2022/04/02 10:33:58;;;;;;;5.53;4.70;;;;;;;8.12;44.66;97795.19;5074605;28;20050;-70
2022/04/02 10:36:30;;;;;;;8.57;4.70;;;;;;;7.83;44.95;97774.13;5109750;28;20562;-68
2022/04/02 10:38:56;;;;;;;7.67;4.63;;;;;;;7.93;44.97;97791.34;5107980;28;20039;-69
2022/04/02 10:41:23;;;;;;;8.90;5.20;;;;;;;7.82;45.07;97775.16;5091136;28;20649;-69
2022/04/02 10:43:59;;;;;;;7.00;5.00;;;;;;;8.01;45.60;97796.50;5074296;28;20560;-69
2022/04/02 10:46:25;;;;;;;6.23;5.17;;;;;;;7.71;45.55;97788.84;5074542;28;20457;-67
2022/04/02 10:49:04;;;;;;;7.23;5.00;;;;;;;7.84;45.87;97797.75;5108051;28;20040;-69
2022/04/02 10:51:31;;;;;;;6.70;5.00;;;;;;;7.70;46.45;97789.84;5074931;28;20036;-68
2022/04/02 10:54:03;;;;;;;5.83;4.63;;;;;;;7.87;46.19;97815.88;5077988;28;20096;-69
2022/04/02 10:56:34;;;;;;;6.82;5.47;;;;;;;7.86;46.48;97810.75;5079547;28;20048;-67
2022/04/02 10:59:00;;;;;;;9.03;5.53;;;;;;;7.65;46.66;97837.97;5093650;28;20048;-69
2022/04/02 11:01:27;;;;;;;10.80;6.03;;;;;;;7.62;47.41;97835.69;5110261;28;20063;-70
2022/04/02 11:03:55;;;;;;;9.33;5.60;;;;;;;7.69;47.56;97851.59;5102438;28;20407;-69
2022/04/02 11:06:44;;;;;;;8.53;5.50;;;;;;;7.86;47.34;97859.16;5090068;28;20039;-73
2022/04/02 11:09:28;;;;;;;8.90;5.90;;;;;;;7.95;47.80;97873.91;5092400;28;20899;-70
2022/04/02 11:12:06;;;;;;;9.43;7.20;;;;;;;7.92;47.77;97861.06;5074813;28;20539;-70
2022/04/02 11:14:49;;;;;;;12.30;7.23;;;;;;;8.01;47.91;97856.50;5093721;28;20039;-70
2022/04/02 11:17:33;;;;;;;11.37;7.53;;;;;;;8.05;47.73;97842.75;5076401;28;20039;-69
2022/04/02 11:20:11;;;;;;;12.47;7.93;;;;;;;8.20;47.55;97846.16;5075135;28;20508;-69
2022/04/02 11:22:52;;;;;;;21.07;11.57;;;;;;;8.18;47.99;97848.16;5075244;28;20155;-67
2022/04/02 11:25:31;;;;;;;14.80;9.18;;;;;;;7.97;48.04;97849.94;5073854;28;20524;-66
2022/04/02 11:28:10;;;;;;;19.87;10.53;;;;;;;7.96;48.30;97859.72;5092350;28;20626;-69
2022/04/02 11:30:43;;;;;;;19.93;11.13;;;;;;;8.10;48.23;97847.47;5108795;28;20044;-70
2022/04/02 11:33:15;;;;;;;24.50;13.00;;;;;;;8.17;48.34;97853.63;5075140;28;20050;-69
2022/04/02 11:36:06;;;;;;;31.27;15.33;;;;;;;8.02;48.60;97847.56;5074868;28;20932;-69
2022/04/02 11:38:34;;;;;;;24.67;14.45;;;;;;;7.97;48.32;97834.06;5071878;28;20036;-70
2022/04/02 11:41:22;;;;;;;27.47;13.50;;;;;;;8.21;48.01;97825.84;5076387;28;20043;-70
2022/04/02 11:44:04;;;;;;;14.97;9.37;;;;;;;7.97;48.37;97803.19;5062549;28;20148;-70
2022/04/02 11:47:02;;;;;;;9.87;6.97;;;;;;;7.93;48.48;97804.53;5040999;28;20032;-69
2022/04/02 11:49:32;;;;;;;8.93;6.60;;;;;;;7.85;48.60;97778.25;5085492;28;20436;-67
2022/04/02 11:52:04;;;;;;;9.98;6.57;;;;;;;7.88;48.63;97766.47;5093112;28;20055;-69
2022/04/02 11:54:30;;;;;;;9.37;6.03;;;;;;;7.63;48.77;97762.53;5094381;28;20099;-68
2022/04/02 11:57:09;;;;;;;9.20;6.13;;;;;;;7.42;49.28;97730.78;5093468;28;20043;-69
2022/04/02 11:59:36;;;;;;;9.80;5.90;;;;;;;7.42;49.58;97750.09;5094589;28;20055;-69
2022/04/02 12:02:03;;;;;;;8.60;6.57;;;;;;;7.43;49.89;97735.88;5076603;28;20040;-68
2022/04/02 12:04:28;;;;;;;14.03;6.10;;;;;;;7.33;49.84;97730.06;5076311;28;20059;-68
2022/04/02 12:07:06;;;;;;;9.17;6.37;;;;;;;7.30;49.96;97685.56;5093059;28;20421;-66